Time;durP1;ratioP1;P1;durP2;ratioP2;P2;SDS_P1;SDS_P2;PMS_P1;PMS_P2;Temp;Humidity;BMP_temperature;BMP_pressure;BME280_temperature;BME280_humidity;BME280_pressure;Samples;Min_cycle;Max_cycle;Signal;HPM_P1;HPM_P2
2021/12/23 00:00:24;;;;;;;57.72;29.98;;;4.20;92.70;;;;;;5031045;28;20042;-78
2021/12/23 00:02:52;;;;;;;66.75;31.30;;;4.20;92.70;;;;;;5034003;28;20057;-79
2021/12/23 00:05:20;;;;;;;68.75;31.05;;;4.20;92.70;;;;;;5051990;28;20037;-78
2021/12/23 00:07:47;;;;;;;65.65;31.00;;;4.20;92.70;;;;;;5051967;28;20044;-79
2021/12/23 00:10:15;;;;;;;67.93;31.10;;;4.20;92.70;;;;;;5052103;28;20051;-79
2021/12/23 00:12:45;;;;;;;75.30;31.55;;;4.20;92.70;;;;;;5038915;28;20060;-79
2021/12/23 00:15:27;;;;;;;69.63;32.28;;;4.20;92.70;;;;;;5032174;28;20042;-79
2021/12/23 00:25:40;;;;;;;67.10;30.92;;;4.20;92.80;;;;;;5032042;28;20050;-78
2021/12/23 00:28:07;;;;;;;64.85;31.40;;;4.10;92.80;;;;;;5030988;28;20053;-78
2021/12/23 00:30:35;;;;;;;68.07;31.58;;;4.20;92.80;;;;;;5051013;28;20055;-78
2021/12/23 00:33:02;;;;;;;69.38;31.45;;;4.10;92.80;;;;;;5055895;28;20056;-78
2021/12/23 00:35:30;;;;;;;71.22;31.23;;;4.10;92.80;;;;;;5054711;28;20406;-78
2021/12/23 00:38:06;;;;;;;69.28;32.42;;;4.10;92.80;;;;;;5044683;28;20045;-79
2021/12/23 00:40:33;;;;;;;72.40;33.50;;;4.20;92.80;;;;;;5035873;28;20049;-79
2021/12/23 00:43:01;;;;;;;72.18;34.17;;;4.20;92.90;;;;;;5035691;28;20045;-79
2021/12/23 00:45:28;;;;;;;73.97;32.47;;;4.20;92.90;;;;;;5035611;28;20053;-79
2021/12/23 00:47:56;;;;;;;64.47;30.65;;;4.20;92.90;;;;;;5052023;28;20053;-79
2021/12/23 00:50:24;;;;;;;77.07;33.38;;;4.20;92.90;;;;;;5046487;28;20049;-79
2021/12/23 00:52:56;;;;;;;75.05;32.42;;;4.20;92.90;;;;;;5055745;28;20049;-79
2021/12/23 00:55:24;;;;;;;74.13;33.65;;;4.20;92.90;;;;;;5054025;28;20040;-79
2021/12/23 00:57:51;;;;;;;76.57;31.92;;;4.30;92.90;;;;;;5055551;28;20053;-79
2021/12/23 01:00:19;;;;;;;74.82;33.13;;;4.30;92.90;;;;;;5054084;28;20045;-79
2021/12/23 01:02:48;;;;;;;77.43;34.15;;;4.30;92.90;;;;;;5031896;28;20517;-79
2021/12/23 01:05:20;;;;;;;68.05;33.33;;;4.30;92.90;;;;;;5033941;28;20045;-79
2021/12/23 01:07:48;;;;;;;71.82;33.97;;;4.30;92.80;;;;;;5035187;28;20076;-79
2021/12/23 01:10:17;;;;;;;69.18;32.08;;;4.30;92.80;;;;;;5034028;28;20072;-79
2021/12/23 01:12:52;;;;;;;79.05;33.67;;;4.30;92.80;;;;;;5017536;28;20050;-79
2021/12/23 01:17:57;;;;;;;74.85;33.08;;;4.30;92.80;;;;;;5051862;28;20041;-79
2021/12/23 01:20:35;;;;;;;70.35;33.20;;;4.40;92.80;;;;;;5034804;28;20368;-79
2021/12/23 01:23:08;;;;;;;69.55;33.40;;;4.40;92.70;;;;;;5035045;28;20422;-79
2021/12/23 01:25:38;;;;;;;78.13;34.43;;;4.40;92.70;;;;;;5033838;28;20415;-79
2021/12/23 01:28:07;;;;;;;70.63;33.40;;;4.50;92.70;;;;;;5033823;28;20060;-79
2021/12/23 01:30:40;;;;;;;74.03;34.13;;;4.40;92.70;;;;;;5033807;28;20046;-79
2021/12/23 01:33:09;;;;;;;76.97;34.00;;;4.40;92.70;;;;;;5033884;28;20049;-79
2021/12/23 01:35:39;;;;;;;76.13;34.17;;;4.50;92.70;;;;;;5037442;28;20048;-79
2021/12/23 01:38:08;;;;;;;68.50;32.97;;;4.50;92.70;;;;;;5054738;28;20049;-78
2021/12/23 01:40:36;;;;;;;62.38;31.80;;;4.50;92.70;;;;;;5054566;28;20056;-79
2021/12/23 01:43:04;;;;;;;73.93;32.47;;;4.50;92.70;;;;;;5053613;28;20398;-79
2021/12/23 01:45:34;;;;;;;70.32;32.63;;;4.50;92.70;;;;;;5054540;28;20037;-79
2021/12/23 01:48:02;;;;;;;74.68;32.95;;;4.50;92.70;;;;;;5052167;28;20041;-79
2021/12/23 01:50:30;;;;;;;71.28;32.58;;;4.50;92.70;;;;;;5034536;28;20372;-79
2021/12/23 01:52:59;;;;;;;70.65;31.90;;;4.50;92.70;;;;;;5034519;28;20061;-79
2021/12/23 01:55:28;;;;;;;72.22;32.97;;;4.50;92.70;;;;;;5034312;28;20049;-79
2021/12/23 01:57:57;;;;;;;63.83;31.25;;;4.50;92.70;;;;;;5033147;28;20056;-79
2021/12/23 02:00:28;;;;;;;69.40;31.65;;;4.50;92.70;;;;;;5033273;28;20046;-78
2021/12/23 02:02:56;;;;;;;66.45;31.63;;;4.40;92.70;;;;;;5016675;28;20041;-78
2021/12/23 02:05:25;;;;;;;74.75;32.28;;;4.40;92.70;;;;;;5051869;28;20036;-79
2021/12/23 02:07:52;;;;;;;73.50;32.63;;;4.40;92.70;;;;;;5054074;28;20479;-80
2021/12/23 02:10:20;;;;;;;75.07;33.72;;;4.40;92.70;;;;;;5054090;28;20045;-80
2021/12/23 02:12:50;;;;;;;71.38;32.53;;;4.40;92.70;;;;;;5054149;28;20516;-80
2021/12/23 02:15:18;;;;;;;69.20;32.03;;;4.40;92.70;;;;;;5052823;28;20049;-80
2021/12/23 02:17:48;;;;;;;80.72;33.42;;;4.40;92.70;;;;;;5036029;28;20060;-80
2021/12/23 02:20:25;;;;;;;66.88;32.88;;;4.40;92.80;;;;;;5035000;28;20048;-79
2021/12/23 02:22:52;;;;;;;70.93;33.30;;;4.30;92.80;;;;;;5033883;28;20372;-80
2021/12/23 02:25:20;;;;;;;68.65;33.22;;;4.40;92.80;;;;;;5034171;28;20050;-79
2021/12/23 02:27:48;;;;;;;79.32;33.20;;;4.40;92.80;;;;;;5033717;28;20049;-80
2021/12/23 02:30:22;;;;;;;74.82;33.53;;;4.40;92.80;;;;;;5032630;28;20041;-80
2021/12/23 02:32:50;;;;;;;79.80;35.28;;;4.40;92.80;;;;;;5033608;28;20490;-80
2021/12/23 02:35:20;;;;;;;78.38;34.15;;;4.40;92.80;;;;;;5031299;28;20046;-80
2021/12/23 02:37:48;;;;;;;74.47;34.00;;;4.50;92.80;;;;;;5052421;28;20045;-80
2021/12/23 02:40:24;;;;;;;79.82;33.55;;;4.40;92.80;;;;;;5053313;28;20052;-80
2021/12/23 02:42:51;;;;;;;78.47;34.28;;;4.40;92.80;;;;;;5052311;28;20068;-80
2021/12/23 02:45:19;;;;;;;78.22;34.85;;;4.40;92.80;;;;;;5053167;28;20045;-80
2021/12/23 02:47:46;;;;;;;83.78;34.53;;;4.30;92.80;;;;;;5053218;28;20049;-80
2021/12/23 02:53:40;;;;;;;82.55;34.58;;;4.40;92.90;;;;;;5145322;23;20049;-78
2021/12/23 02:56:10;;;;;;;81.13;35.53;;;4.40;92.90;;;;;;5012622;28;20483;-79
2021/12/23 02:58:38;;;;;;;93.55;37.47;;;4.40;92.90;;;;;;5011881;28;20057;-79
2021/12/23 03:01:09;;;;;;;80.20;36.53;;;4.40;92.90;;;;;;5013503;28;20417;-79
2021/12/23 03:03:37;;;;;;;80.50;35.42;;;4.40;92.90;;;;;;5012202;28;20041;-78
2021/12/23 03:06:06;;;;;;;92.82;35.38;;;4.50;93.00;;;;;;5013381;28;20038;-79
2021/12/23 03:08:36;;;;;;;74.50;35.35;;;4.50;92.90;;;;;;5013034;28;20052;-79
2021/12/23 03:11:05;;;;;;;84.43;35.88;;;4.50;93.00;;;;;;4995495;28;20060;-79
2021/12/23 03:13:34;;;;;;;85.60;36.28;;;4.60;92.90;;;;;;5013301;28;20498;-80
2021/12/23 03:16:03;;;;;;;85.85;35.80;;;4.60;92.90;;;;;;5012278;28;20057;-80
2021/12/23 03:18:31;;;;;;;90.75;36.80;;;4.60;92.90;;;;;;5012150;28;20037;-80
2021/12/23 03:20:59;;;;;;;80.22;35.65;;;4.70;92.90;;;;;;5012721;28;20057;-79
2021/12/23 03:23:27;;;;;;;83.45;36.55;;;4.70;92.90;;;;;;5011742;28;20606;-80
2021/12/23 03:25:55;;;;;;;68.30;35.40;;;4.80;92.90;;;;;;5012458;28;20501;-79
2021/12/23 03:28:23;;;;;;;82.25;36.38;;;4.70;92.90;;;;;;5012961;28;20041;-79
2021/12/23 03:30:50;;;;;;;78.40;35.03;;;4.80;92.90;;;;;;5013314;28;20042;-79
2021/12/23 03:33:19;;;;;;;82.22;36.40;;;4.80;92.90;;;;;;5012956;28;20042;-80
2021/12/23 03:35:47;;;;;;;75.38;35.47;;;4.80;92.90;;;;;;5012326;28;20042;-79
2021/12/23 03:38:16;;;;;;;83.25;36.17;;;4.80;92.90;;;;;;5012621;28;20065;-79
2021/12/23 03:40:44;;;;;;;82.07;38.15;;;4.80;92.90;;;;;;5012884;28;20046;-79
2021/12/23 03:43:12;;;;;;;84.10;36.22;;;4.80;92.80;;;;;;5011558;28;20050;-79
2021/12/23 03:45:42;;;;;;;77.53;36.95;;;4.90;92.80;;;;;;5011746;28;20057;-79
2021/12/23 03:48:11;;;;;;;82.90;37.15;;;4.80;92.90;;;;;;5012759;28;20046;-79
2021/12/23 03:50:39;;;;;;;75.13;36.92;;;4.90;92.90;;;;;;5011237;28;20046;-79
2021/12/23 03:53:07;;;;;;;91.65;38.90;;;4.90;92.80;;;;;;5012561;28;20406;-79
2021/12/23 03:55:34;;;;;;;87.75;36.65;;;4.90;92.80;;;;;;5011470;28;20049;-79
2021/12/23 03:58:02;;;;;;;84.32;35.47;;;4.80;92.80;;;;;;5012789;28;20046;-79
2021/12/23 04:00:30;;;;;;;79.60;35.55;;;4.90;92.80;;;;;;5011715;28;20058;-79
2021/12/23 04:02:58;;;;;;;85.28;37.28;;;4.90;92.80;;;;;;4997099;28;20065;-79
2021/12/23 04:05:26;;;;;;;93.32;36.65;;;4.80;92.90;;;;;;5000571;28;20050;-79
2021/12/23 04:07:54;;;;;;;89.03;37.05;;;4.80;92.90;;;;;;5011284;28;20280;-79
2021/12/23 04:10:21;;;;;;;88.78;37.97;;;4.80;92.90;;;;;;5012842;28;20053;-79
2021/12/23 04:12:51;;;;;;;97.03;38.03;;;4.80;92.90;;;;;;5012624;28;20057;-79
2021/12/23 04:15:20;;;;;;;86.93;36.45;;;4.80;92.90;;;;;;5011296;28;20046;-79
2021/12/23 04:17:49;;;;;;;86.10;36.80;;;4.80;92.90;;;;;;5012477;28;20057;-79
2021/12/23 04:20:21;;;;;;;87.28;38.20;;;4.80;93.00;;;;;;5011275;28;20054;-79
2021/12/23 04:22:52;;;;;;;80.75;36.30;;;4.80;93.00;;;;;;5012555;28;20045;-79
2021/12/23 04:25:23;;;;;;;88.10;37.42;;;4.80;93.00;;;;;;5011655;28;20057;-79
2021/12/23 04:27:53;;;;;;;88.53;37.10;;;4.80;93.00;;;;;;5011934;28;20046;-79
2021/12/23 04:30:22;;;;;;;84.85;38.05;;;4.80;93.00;;;;;;5011958;28;20395;-79
2021/12/23 04:32:51;;;;;;;84.13;38.05;;;4.80;93.00;;;;;;5011118;28;20518;-79
2021/12/23 04:35:19;;;;;;;93.43;39.38;;;4.80;93.00;;;;;;5012123;28;20046;-79
2021/12/23 04:37:46;;;;;;;89.47;39.17;;;4.80;93.00;;;;;;5012532;28;20050;-79
2021/12/23 04:40:15;;;;;;;91.72;38.33;;;4.80;93.00;;;;;;5013108;28;20213;-79
2021/12/23 04:42:44;;;;;;;88.18;39.50;;;4.80;93.00;;;;;;5012082;28;20042;-79
2021/12/23 04:45:12;;;;;;;91.90;38.40;;;4.80;93.00;;;;;;4992666;28;20047;-79
2021/12/23 04:47:40;;;;;;;88.30;39.30;;;4.80;93.00;;;;;;4991284;28;20049;-80
2021/12/23 04:50:11;;;;;;;93.40;37.92;;;4.80;93.00;;;;;;4992905;28;20058;-79
2021/12/23 04:52:39;;;;;;;89.75;38.50;;;4.80;93.00;;;;;;4992432;28;20057;-78
2021/12/23 04:55:08;;;;;;;90.80;40.72;;;4.80;93.00;;;;;;4992475;28;20053;-79
2021/12/23 04:57:36;;;;;;;89.45;38.08;;;4.80;93.00;;;;;;4991255;28;20529;-79
2021/12/23 05:00:08;;;;;;;85.43;38.03;;;4.80;93.10;;;;;;4999697;28;20050;-79
2021/12/23 05:02:35;;;;;;;93.30;37.97;;;4.90;93.10;;;;;;5010577;28;20042;-79
2021/12/23 05:05:04;;;;;;;90.55;38.47;;;4.90;93.10;;;;;;5011645;28;20054;-79
2021/12/23 05:07:32;;;;;;;92.95;39.38;;;4.90;93.10;;;;;;5011984;28;20057;-79
2021/12/23 05:10:00;;;;;;;91.95;38.70;;;4.90;93.10;;;;;;5011967;28;20050;-79
2021/12/23 05:12:27;;;;;;;92.05;38.25;;;4.90;93.10;;;;;;4994503;28;20490;-79
2021/12/23 05:14:55;;;;;;;91.30;38.45;;;5.00;93.10;;;;;;5011559;28;20062;-79
2021/12/23 05:17:22;;;;;;;85.03;37.70;;;4.90;93.00;;;;;;5012405;28;20049;-79
2021/12/23 05:19:50;;;;;;;87.78;38.28;;;5.00;93.10;;;;;;5014963;28;20054;-79
2021/12/23 05:22:17;;;;;;;83.70;37.25;;;5.00;93.10;;;;;;5013897;28;20048;-79
2021/12/23 05:24:45;;;;;;;83.00;37.42;;;5.00;93.00;;;;;;5015269;28;20410;-79
2021/12/23 05:27:12;;;;;;;96.18;38.08;;;5.00;93.00;;;;;;5015241;28;20038;-79
2021/12/23 05:29:40;;;;;;;91.22;38.47;;;5.00;93.00;;;;;;4997765;28;20053;-79
2021/12/23 05:32:08;;;;;;;89.05;39.28;;;5.00;93.00;;;;;;5015278;28;20069;-79
2021/12/23 05:34:35;;;;;;;97.53;39.30;;;5.00;93.00;;;;;;5015101;28;20049;-79
2021/12/23 05:37:03;;;;;;;98.55;41.40;;;5.00;93.00;;;;;;5013781;28;20050;-79
2021/12/23 05:39:31;;;;;;;85.38;38.10;;;5.00;93.00;;;;;;5013794;28;20398;-79
2021/12/23 05:41:58;;;;;;;91.13;38.40;;;5.00;93.00;;;;;;5013808;28;20054;-79
2021/12/23 05:44:26;;;;;;;101.15;38.72;;;5.00;93.00;;;;;;5014935;28;20491;-79
2021/12/23 05:46:53;;;;;;;94.63;39.63;;;5.00;93.00;;;;;;5013546;28;20061;-79
2021/12/23 05:49:21;;;;;;;93.25;39.67;;;5.00;93.00;;;;;;5014867;28;20050;-79
2021/12/23 05:51:49;;;;;;;94.13;38.30;;;5.00;93.10;;;;;;5014587;28;20395;-79
2021/12/23 05:54:16;;;;;;;104.32;39.90;;;5.00;93.10;;;;;;5014630;28;20054;-79
2021/12/23 05:56:44;;;;;;;95.22;39.75;;;5.00;93.10;;;;;;5014896;28;20046;-79
2021/12/23 05:59:11;;;;;;;100.22;40.67;;;5.00;93.10;;;;;;5013363;28;20064;-79
2021/12/23 06:01:39;;;;;;;106.28;42.22;;;5.00;93.10;;;;;;5014517;28;20042;-79
2021/12/23 06:04:07;;;;;;;108.88;41.47;;;5.00;93.10;;;;;;5014301;28;20065;-79
2021/12/23 06:06:35;;;;;;;98.60;41.65;;;5.00;93.10;;;;;;5013028;28;20054;-79
2021/12/23 06:09:03;;;;;;;112.25;42.15;;;5.00;93.10;;;;;;5014215;28;20050;-79
2021/12/23 06:11:31;;;;;;;111.38;42.47;;;5.00;93.20;;;;;;5013370;28;20041;-79
2021/12/23 06:13:59;;;;;;;118.70;43.17;;;5.00;93.20;;;;;;5012661;28;20511;-79
2021/12/23 06:16:26;;;;;;;118.20;44.80;;;5.00;93.20;;;;;;5012857;28;20053;-79
2021/12/23 06:18:54;;;;;;;111.80;43.08;;;5.00;93.20;;;;;;5014375;28;20058;-79
2021/12/23 06:21:26;;;;;;;118.97;43.70;;;5.00;93.30;;;;;;5012984;28;20053;-79
2021/12/23 06:23:54;;;;;;;124.93;44.42;;;5.00;93.30;;;;;;5012397;28;20050;-79
2021/12/23 06:26:22;;;;;;;126.78;45.42;;;5.00;93.30;;;;;;5013791;28;20526;-79
2021/12/23 06:28:49;;;;;;;130.05;44.60;;;5.00;93.40;;;;;;5013647;28;20483;-79
2021/12/23 06:31:17;;;;;;;127.95;44.58;;;5.00;93.40;;;;;;5015188;28;20062;-80
2021/12/23 06:33:45;;;;;;;127.80;45.17;;;5.00;93.40;;;;;;5012511;28;20046;-79
2021/12/23 06:36:16;;;;;;;131.77;45.95;;;5.00;93.40;;;;;;5014266;28;20053;-79
2021/12/23 06:38:44;;;;;;;131.65;46.60;;;5.00;93.50;;;;;;5011553;28;20050;-79
2021/12/23 06:41:12;;;;;;;135.98;47.70;;;5.00;93.50;;;;;;5013931;28;20061;-79
2021/12/23 06:43:40;;;;;;;155.85;50.42;;;5.00;93.50;;;;;;5013965;28;20479;-79
2021/12/23 06:46:08;;;;;;;162.18;50.17;;;5.00;93.50;;;;;;5013830;28;20049;-79
2021/12/23 06:48:35;;;;;;;166.07;50.97;;;5.00;93.60;;;;;;5013637;28;20053;-79
2021/12/23 06:51:04;;;;;;;179.68;52.38;;;5.00;93.60;;;;;;5013679;28;20050;-79
2021/12/23 06:53:33;;;;;;;189.32;51.83;;;5.00;93.60;;;;;;5013158;28;20054;-79
2021/12/23 06:56:00;;;;;;;197.35;52.72;;;5.00;93.60;;;;;;5013312;28;20060;-79
2021/12/23 06:58:30;;;;;;;203.90;53.00;;;5.00;93.70;;;;;;4996097;28;20053;-79
2021/12/23 07:00:59;;;;;;;221.23;56.75;;;5.00;93.70;;;;;;5013672;28;20049;-79
2021/12/23 07:03:40;;;;;;;224.02;54.70;;;5.10;93.70;;;;;;5012634;28;20506;-87
2021/12/23 07:06:09;;;;;;;252.88;57.17;;;5.00;93.70;;;;;;4995841;28;20053;-79
2021/12/23 07:08:37;;;;;;;269.08;58.60;;;5.10;93.70;;;;;;5013177;28;20049;-79
2021/12/23 07:11:05;;;;;;;322.92;60.28;;;5.10;93.80;;;;;;5012364;28;20377;-79
2021/12/23 07:13:33;;;;;;;338.33;62.50;;;5.10;93.80;;;;;;5011823;28;20058;-79
2021/12/23 07:16:01;;;;;;;333.42;61.58;;;5.10;93.80;;;;;;5013091;28;20502;-79
2021/12/23 07:18:29;;;;;;;339.63;60.22;;;5.10;93.80;;;;;;5012781;28;20046;-79
2021/12/23 07:20:56;;;;;;;350.02;64.80;;;5.10;93.80;;;;;;4995695;28;20057;-79
2021/12/23 07:23:24;;;;;;;317.95;61.25;;;5.10;93.90;;;;;;5012509;28;20403;-79
2021/12/23 07:25:52;;;;;;;330.25;62.47;;;5.20;93.90;;;;;;5011941;28;20050;-79
2021/12/23 07:28:19;;;;;;;399.50;65.43;;;5.20;93.90;;;;;;5013066;28;20490;-79
2021/12/23 07:30:47;;;;;;;348.42;62.97;;;5.10;94.00;;;;;;5011852;28;20050;-79
2021/12/23 07:33:15;;;;;;;484.63;71.60;;;5.20;94.00;;;;;;5012792;28;20042;-79
2021/12/23 07:35:42;;;;;;;426.95;68.72;;;5.20;94.00;;;;;;5013019;28;20076;-79
2021/12/23 07:38:10;;;;;;;477.27;70.22;;;5.20;94.00;;;;;;4995232;28;20057;-79
2021/12/23 07:40:38;;;;;;;462.23;71.50;;;5.20;94.00;;;;;;5010718;28;20499;-79
2021/12/23 07:43:42;;;;;;;409.95;74.18;;;5.30;94.10;;;;;;5011421;28;20622;-79
2021/12/23 07:46:10;;;;;;;428.23;68.78;;;5.30;94.10;;;;;;5012719;28;20061;-79
2021/12/23 07:48:38;;;;;;;366.00;67.72;;;5.30;94.10;;;;;;5012341;28;20514;-80
2021/12/23 07:51:06;;;;;;;397.42;68.78;;;5.30;94.10;;;;;;5012565;28;20517;-80
2021/12/23 07:53:33;;;;;;;391.40;69.50;;;5.30;94.10;;;;;;5012362;28;20058;-80
2021/12/23 07:56:03;;;;;;;388.52;67.70;;;5.30;94.10;;;;;;4995439;28;20060;-80
2021/12/23 07:58:32;;;;;;;384.23;69.07;;;5.30;94.10;;;;;;4995286;28;20494;-80
2021/12/23 08:00:59;;;;;;;376.75;69.68;;;5.40;94.20;;;;;;5012764;28;20050;-80
2021/12/23 08:03:27;;;;;;;376.60;70.45;;;5.40;94.20;;;;;;5012602;28;20042;-80
2021/12/23 08:05:55;;;;;;;385.35;70.47;;;5.50;94.20;;;;;;5011016;28;20049;-80
2021/12/23 08:08:23;;;;;;;394.85;73.53;;;5.50;94.20;;;;;;5012435;28;20057;-80
2021/12/23 08:10:50;;;;;;;388.85;70.03;;;5.50;94.20;;;;;;5011532;28;20053;-81
2021/12/23 08:13:19;;;;;;;329.90;70.45;;;5.50;94.30;;;;;;5012396;28;20046;-79
2021/12/23 08:15:46;;;;;;;411.60;75.70;;;5.50;94.30;;;;;;5014212;28;20057;-79
2021/12/23 08:18:15;;;;;;;337.50;71.68;;;5.60;94.30;;;;;;5011278;28;20050;-78
2021/12/23 08:20:43;;;;;;;352.75;72.63;;;5.60;94.30;;;;;;5012593;28;20117;-79
2021/12/23 08:23:10;;;;;;;361.58;72.05;;;5.60;94.30;;;;;;5012514;28;20522;-79
2021/12/23 08:25:38;;;;;;;357.27;71.10;;;5.70;94.30;;;;;;5012487;28;20041;-80
2021/12/23 08:28:06;;;;;;;362.38;71.25;;;5.70;94.30;;;;;;5011086;28;20054;-79
2021/12/23 08:30:34;;;;;;;325.75;73.35;;;5.70;94.30;;;;;;5011010;28;20058;-79
2021/12/23 08:33:02;;;;;;;354.35;71.88;;;5.70;94.40;;;;;;5011992;28;20057;-79
2021/12/23 08:35:30;;;;;;;336.20;72.15;;;5.80;94.40;;;;;;5012395;28;20046;-79
2021/12/23 08:37:58;;;;;;;369.00;71.53;;;5.80;94.40;;;;;;5012234;28;20122;-80
2021/12/23 08:40:27;;;;;;;391.98;74.28;;;5.80;94.40;;;;;;5013035;28;20153;-78
2021/12/23 08:42:57;;;;;;;354.55;71.88;;;5.80;94.40;;;;;;4995017;28;20042;-78
2021/12/23 08:45:26;;;;;;;269.95;66.05;;;5.90;94.40;;;;;;5012230;28;20050;-76
2021/12/23 08:47:55;;;;;;;331.48;69.82;;;5.90;94.40;;;;;;5011304;28;20057;-78
2021/12/23 08:50:25;;;;;;;318.58;67.30;;;5.90;94.40;;;;;;5010381;28;20053;-77
2021/12/23 08:52:53;;;;;;;325.88;67.38;;;6.00;94.40;;;;;;5015279;28;20049;-77
2021/12/23 08:55:21;;;;;;;326.48;66.43;;;6.00;94.40;;;;;;5015226;28;20057;-77
2021/12/23 08:57:48;;;;;;;317.40;63.55;;;6.00;94.50;;;;;;5014466;28;20499;-77
2021/12/23 09:00:18;;;;;;;316.25;66.97;;;6.10;94.50;;;;;;5015732;28;20494;-77
2021/12/23 09:02:48;;;;;;;321.45;66.15;;;6.20;94.40;;;;;;5014507;28;20057;-77
2021/12/23 09:05:19;;;;;;;375.45;68.18;;;6.20;94.50;;;;;;5015938;28;20045;-77
2021/12/23 09:07:49;;;;;;;414.90;71.85;;;6.20;94.50;;;;;;5015637;28;20407;-77
2021/12/23 09:10:17;;;;;;;362.70;67.32;;;6.30;94.50;;;;;;5015401;28;20045;-76
2021/12/23 09:12:45;;;;;;;321.30;64.00;;;6.30;94.50;;;;;;5015842;28;20054;-77
2021/12/23 09:15:12;;;;;;;353.83;65.95;;;6.30;94.50;;;;;;5005598;28;20061;-76
2021/12/23 09:17:40;;;;;;;368.25;66.47;;;6.30;94.50;;;;;;5006594;28;20042;-78
2021/12/23 09:20:10;;;;;;;420.52;68.78;;;6.40;94.50;;;;;;5008734;28;20050;-77
2021/12/23 09:22:39;;;;;;;399.77;66.82;;;6.40;94.50;;;;;;5004925;28;20476;-77
2021/12/23 09:25:12;;;;;;;400.25;67.45;;;6.50;94.50;;;;;;5003833;28;20050;-77
2021/12/23 09:33:27;;;;;;;494.50;72.28;;;6.50;94.50;;;;;;5015045;28;20041;-79
2021/12/23 09:35:54;;;;;;;483.38;71.18;;;6.50;94.50;;;;;;5009106;28;20368;-77
2021/12/23 09:38:27;;;;;;;466.02;70.10;;;6.50;94.50;;;;;;5007738;28;20042;-77
2021/12/23 09:41:07;;;;;;;488.85;71.18;;;6.50;94.50;;;;;;5004578;28;20044;-77
2021/12/23 09:43:36;;;;;;;468.02;70.95;;;6.50;94.50;;;;;;5004951;28;20058;-77
2021/12/23 09:46:05;;;;;;;482.40;72.97;;;6.50;94.50;;;;;;5006172;28;20225;-78
2021/12/23 09:48:33;;;;;;;507.88;72.00;;;6.50;94.50;;;;;;5004966;28;20064;-77
2021/12/23 09:51:06;;;;;;;480.60;71.80;;;6.60;94.60;;;;;;5004869;28;20061;-77
2021/12/23 09:53:44;;;;;;;504.60;71.38;;;6.50;94.50;;;;;;5004782;28;20046;-77
2021/12/23 09:56:13;;;;;;;517.70;73.05;;;6.60;94.60;;;;;;5004209;28;20058;-77
2021/12/23 09:58:44;;;;;;;562.58;76.88;;;6.60;94.60;;;;;;5004289;28;20045;-77
2021/12/23 10:01:12;;;;;;;492.75;71.97;;;6.60;94.60;;;;;;5003116;28;20145;-77
2021/12/23 10:03:39;;;;;;;536.53;74.22;;;6.60;94.60;;;;;;5000151;28;20042;-76
2021/12/23 10:06:07;;;;;;;501.95;75.38;;;6.60;94.60;;;;;;4998703;28;20395;-78
2021/12/23 10:08:39;;;;;;;520.33;74.43;;;6.70;94.60;;;;;;5014350;28;20054;-77
2021/12/23 10:12:18;;;;;;;509.45;74.22;;;6.60;94.60;;;;;;5013957;28;20058;-77
2021/12/23 10:31:07;;;;;;;387.75;66.93;;;6.80;94.60;;;;;;4994345;28;20507;-78
2021/12/23 10:37:04;;;;;;;359.05;64.60;;;6.80;94.60;;;;;;4997301;28;20045;-78
2021/12/23 10:39:25;;;;;;;350.17;67.00;;;6.90;94.70;;;;;;5013786;28;20041;-78
2021/12/23 10:42:09;;;;;;;352.10;64.57;;;6.90;94.70;;;;;;5012282;28;20038;-78
2021/12/23 10:44:38;;;;;;;295.05;61.47;;;6.90;94.60;;;;;;5012496;28;20046;-78
2021/12/23 10:47:07;;;;;;;265.45;60.30;;;7.00;94.70;;;;;;5013215;28;20058;-78
2021/12/23 10:49:51;;;;;;;262.55;62.92;;;7.00;94.70;;;;;;4996554;28;20053;-78
2021/12/23 10:52:26;;;;;;;256.05;59.00;;;7.10;94.70;;;;;;5013451;28;20042;-78
2021/12/23 11:00:35;;;;;;;190.88;50.55;;;7.20;94.70;;;;;;5013179;28;20492;-78
2021/12/23 11:06:25;;;;;;;183.95;49.83;;;7.30;94.70;;;;;;5013502;28;20057;-78
2021/12/23 11:09:18;;;;;;;181.85;50.55;;;7.40;94.80;;;;;;4993688;28;20488;-78
2021/12/23 11:41:51;;;;;;;184.77;51.50;;;7.90;94.60;;;;;;4992278;28;20065;-78
2021/12/23 11:44:20;;;;;;;189.70;51.75;;;7.90;94.70;;;;;;5009478;28;20046;-78
2021/12/23 11:46:53;;;;;;;194.48;50.60;;;7.90;94.60;;;;;;4995589;28;20050;-78
2021/12/23 11:49:21;;;;;;;195.98;52.97;;;7.90;94.60;;;;;;5012718;28;20487;-78
2021/12/23 11:54:25;;;;;;;177.18;50.63;;;7.90;94.70;;;;;;5011260;28;20534;-78
2021/12/23 11:57:03;;;;;;;194.20;50.95;;;7.90;94.70;;;;;;5011234;28;20403;-78
2021/12/23 11:59:33;;;;;;;167.15;48.90;;;8.00;94.70;;;;;;5012491;28;20064;-77
2021/12/23 12:02:00;;;;;;;172.35;49.95;;;8.00;94.70;;;;;;5012676;28;20519;-79
2021/12/23 12:04:37;;;;;;;182.60;49.70;;;8.00;94.70;;;;;;5011152;28;20050;-78
2021/12/23 12:07:19;;;;;;;163.90;49.25;;;8.00;94.70;;;;;;5011537;28;20411;-78
2021/12/23 12:10:17;;;;;;;165.90;49.80;;;8.10;94.80;;;;;;4994939;28;20050;-78
2021/12/23 12:13:10;;;;;;;173.65;49.35;;;8.20;94.70;;;;;;5011098;28;20054;-78
2021/12/23 12:15:37;;;;;;;170.05;50.15;;;8.20;94.70;;;;;;5012491;28;20053;-78
2021/12/23 12:18:10;;;;;;;156.88;47.50;;;8.20;94.70;;;;;;5012512;28;20046;-79
2021/12/23 12:20:49;;;;;;;153.27;47.77;;;8.20;94.60;;;;;;5012286;28;20049;-78
2021/12/23 12:23:28;;;;;;;160.55;47.25;;;8.30;94.60;;;;;;5012206;28;20049;-78
2021/12/23 12:26:08;;;;;;;152.73;46.08;;;8.30;94.60;;;;;;5010452;28;20053;-79
2021/12/23 12:28:47;;;;;;;151.27;46.85;;;8.30;94.60;;;;;;5016575;28;20042;-79
2021/12/23 12:31:19;;;;;;;146.10;45.80;;;8.30;94.60;;;;;;5015438;28;20045;-79
2021/12/23 12:34:05;;;;;;;136.07;44.55;;;8.30;94.60;;;;;;5014985;28;20052;-79
2021/12/23 12:36:45;;;;;;;123.60;40.58;;;8.30;94.60;;;;;;5014686;28;20050;-79
2021/12/23 12:39:21;;;;;;;123.97;40.83;;;8.40;94.60;;;;;;5015131;28;20037;-78
2021/12/23 12:41:48;;;;;;;124.57;42.47;;;8.40;94.60;;;;;;5016052;28;20059;-77
2021/12/23 12:44:34;;;;;;;121.03;43.00;;;8.40;94.60;;;;;;5015646;28;20057;-78
2021/12/23 12:47:12;;;;;;;112.75;38.38;;;8.40;94.60;;;;;;5014627;28;20038;-78
2021/12/23 12:49:45;;;;;;;108.75;38.55;;;8.50;94.60;;;;;;5016200;28;20042;-78
2021/12/23 12:52:18;;;;;;;113.47;41.27;;;8.50;94.50;;;;;;5015572;28;20065;-78
2021/12/23 12:54:54;;;;;;;107.75;39.38;;;8.50;94.50;;;;;;5015673;28;20483;-78
2021/12/23 12:57:38;;;;;;;111.45;40.28;;;8.60;94.50;;;;;;5014485;28;20400;-87
2021/12/23 13:00:24;;;;;;;103.63;39.45;;;8.50;94.50;;;;;;5015909;28;20050;-79
2021/12/23 13:03:01;;;;;;;115.07;41.10;;;8.60;94.50;;;;;;4994909;28;20058;-79
2021/12/23 13:05:42;;;;;;;116.50;42.83;;;8.60;94.50;;;;;;4996128;28;20046;-78
2021/12/23 13:08:36;;;;;;;121.35;41.45;;;8.60;94.50;;;;;;4994886;28;20055;-78
2021/12/23 13:11:23;;;;;;;121.25;42.22;;;8.60;94.50;;;;;;5010928;28;20061;-77
2021/12/23 13:14:14;;;;;;;114.25;40.10;;;8.70;94.40;;;;;;4996109;28;20476;-78
2021/12/23 13:17:13;;;;;;;114.47;40.88;;;8.70;94.40;;;;;;5001443;28;20065;-77
2021/12/23 13:19:42;;;;;;;104.38;40.03;;;8.70;94.40;;;;;;4995096;28;20046;-78
2021/12/23 13:22:29;;;;;;;115.55;40.35;;;8.70;94.40;;;;;;4994365;28;20038;-77
2021/12/23 13:24:58;;;;;;;105.25;39.20;;;8.70;94.40;;;;;;4995457;28;20051;-78
2021/12/23 13:27:28;;;;;;;106.30;39.55;;;8.80;94.40;;;;;;4994503;28;20050;-78
2021/12/23 13:30:07;;;;;;;107.07;38.83;;;8.70;94.30;;;;;;4993782;28;20511;-78
2021/12/23 13:32:34;;;;;;;107.13;39.92;;;8.80;94.30;;;;;;4995286;28;20058;-78
2021/12/23 13:35:14;;;;;;;99.38;37.10;;;8.80;94.40;;;;;;5000415;28;20054;-78
2021/12/23 13:37:44;;;;;;;101.43;37.33;;;8.80;94.30;;;;;;5012443;28;20046;-78
2021/12/23 13:40:25;;;;;;;103.05;39.00;;;8.80;94.30;;;;;;5014453;28;20073;-78
2021/12/23 13:42:52;;;;;;;95.55;37.90;;;8.80;94.20;;;;;;5015027;28;20042;-77
2021/12/23 13:45:21;;;;;;;91.65;35.67;;;8.90;94.20;;;;;;4997213;28;20510;-78
2021/12/23 13:47:54;;;;;;;91.35;35.78;;;8.90;94.20;;;;;;4997411;28;20491;-77
2021/12/23 13:50:24;;;;;;;91.78;35.33;;;8.90;94.20;;;;;;5012944;28;20049;-77
2021/12/23 13:52:53;;;;;;;88.45;35.15;;;8.90;94.10;;;;;;5013193;28;20050;-77
2021/12/23 13:55:23;;;;;;;92.10;35.35;;;8.90;94.10;;;;;;5013376;28;20076;-77
2021/12/23 13:57:55;;;;;;;90.97;36.33;;;9.00;94.10;;;;;;5014501;28;20054;-77
2021/12/23 14:00:29;;;;;;;83.90;35.13;;;9.00;94.10;;;;;;5009682;28;20051;-77
2021/12/23 14:03:07;;;;;;;94.75;36.42;;;9.00;94.10;;;;;;4994420;28;20062;-77
2021/12/23 14:05:40;;;;;;;88.10;35.60;;;9.00;94.00;;;;;;5002762;28;20046;-77
2021/12/23 14:08:11;;;;;;;87.00;35.63;;;9.00;94.00;;;;;;5014471;28;20042;-77